sensor_id;sensor_type;location;lat;lon;timestamp;P1;durP1;ratioP1;P2;durP2;ratioP2
54845;SDS011;53889;50.084;8.646;2022-10-20T00:02:16;9.30;;;6.03;;
54845;SDS011;53889;50.084;8.646;2022-10-20T00:04:43;13.88;;;6.03;;
54845;SDS011;53889;50.084;8.646;2022-10-20T00:07:10;11.50;;;6.07;;
54845;SDS011;53889;50.084;8.646;2022-10-20T00:09:41;11.48;;;5.65;;
54845;SDS011;53889;50.084;8.646;2022-10-20T00:12:07;8.98;;;5.82;;
54845;SDS011;53889;50.084;8.646;2022-10-20T00:14:36;10.25;;;5.88;;
54845;SDS011;53889;50.084;8.646;2022-10-20T00:17:03;11.05;;;5.90;;
54845;SDS011;53889;50.084;8.646;2022-10-20T00:19:30;9.77;;;6.07;;
54845;SDS011;53889;50.084;8.646;2022-10-20T00:21:57;12.80;;;6.25;;
54845;SDS011;53889;50.084;8.646;2022-10-20T00:24:24;11.02;;;5.63;;
54845;SDS011;53889;50.084;8.646;2022-10-20T00:26:51;8.38;;;5.47;;
54845;SDS011;53889;50.084;8.646;2022-10-20T00:29:18;9.73;;;5.60;;
54845;SDS011;53889;50.084;8.646;2022-10-20T00:31:46;11.57;;;5.80;;
54845;SDS011;53889;50.084;8.646;2022-10-20T00:34:13;8.18;;;5.57;;
54845;SDS011;53889;50.084;8.646;2022-10-20T00:36:40;8.65;;;6.00;;
54845;SDS011;53889;50.084;8.646;2022-10-20T00:39:07;11.20;;;5.45;;
54845;SDS011;53889;50.084;8.646;2022-10-20T00:41:34;10.77;;;5.88;;
54845;SDS011;53889;50.084;8.646;2022-10-20T00:44:01;10.40;;;5.10;;
54845;SDS011;53889;50.084;8.646;2022-10-20T00:46:49;11.32;;;5.47;;
54845;SDS011;53889;50.084;8.646;2022-10-20T00:49:19;11.10;;;5.43;;
54845;SDS011;53889;50.084;8.646;2022-10-20T00:51:48;7.55;;;5.00;;
54845;SDS011;53889;50.084;8.646;2022-10-20T00:54:19;9.70;;;5.32;;
54845;SDS011;53889;50.084;8.646;2022-10-20T00:56:48;11.48;;;5.82;;
54845;SDS011;53889;50.084;8.646;2022-10-20T00:59:17;10.35;;;5.75;;
54845;SDS011;53889;50.084;8.646;2022-10-20T01:01:47;10.73;;;5.60;;
54845;SDS011;53889;50.084;8.646;2022-10-20T01:04:16;8.98;;;5.57;;
54845;SDS011;53889;50.084;8.646;2022-10-20T01:06:43;9.90;;;5.82;;
54845;SDS011;53889;50.084;8.646;2022-10-20T01:09:09;11.70;;;5.60;;
54845;SDS011;53889;50.084;8.646;2022-10-20T01:11:41;10.80;;;5.03;;
54845;SDS011;53889;50.084;8.646;2022-10-20T01:14:20;7.65;;;5.03;;
54845;SDS011;53889;50.084;8.646;2022-10-20T01:17:00;10.75;;;5.60;;
54845;SDS011;53889;50.084;8.646;2022-10-20T01:19:43;9.75;;;5.95;;
54845;SDS011;53889;50.084;8.646;2022-10-20T01:22:31;8.73;;;5.03;;
54845;SDS011;53889;50.084;8.646;2022-10-20T01:25:15;9.32;;;5.57;;
54845;SDS011;53889;50.084;8.646;2022-10-20T01:27:49;9.15;;;5.28;;
54845;SDS011;53889;50.084;8.646;2022-10-20T01:30:21;8.55;;;5.07;;
54845;SDS011;53889;50.084;8.646;2022-10-20T01:32:51;9.85;;;5.40;;
54845;SDS011;53889;50.084;8.646;2022-10-20T01:35:39;9.95;;;5.43;;
54845;SDS011;53889;50.084;8.646;2022-10-20T01:38:13;8.18;;;5.53;;
54845;SDS011;53889;50.084;8.646;2022-10-20T01:40:47;8.90;;;5.90;;
54845;SDS011;53889;50.084;8.646;2022-10-20T01:43:19;9.02;;;5.68;;
54845;SDS011;53889;50.084;8.646;2022-10-20T01:45:49;9.65;;;5.20;;
54845;SDS011;53889;50.084;8.646;2022-10-20T01:48:19;9.32;;;5.60;;
54845;SDS011;53889;50.084;8.646;2022-10-20T01:50:49;9.15;;;5.50;;
54845;SDS011;53889;50.084;8.646;2022-10-20T01:53:17;9.48;;;5.80;;
54845;SDS011;53889;50.084;8.646;2022-10-20T01:55:45;8.80;;;5.55;;
54845;SDS011;53889;50.084;8.646;2022-10-20T02:01:27;8.73;;;5.05;;
54845;SDS011;53889;50.084;8.646;2022-10-20T02:04:06;8.63;;;5.68;;
54845;SDS011;53889;50.084;8.646;2022-10-20T02:06:36;8.77;;;5.38;;
54845;SDS011;53889;50.084;8.646;2022-10-20T02:09:10;9.68;;;5.53;;
54845;SDS011;53889;50.084;8.646;2022-10-20T02:11:42;8.88;;;5.93;;
54845;SDS011;53889;50.084;8.646;2022-10-20T02:14:14;8.30;;;5.70;;
54845;SDS011;53889;50.084;8.646;2022-10-20T02:16:45;8.90;;;5.55;;
54845;SDS011;53889;50.084;8.646;2022-10-20T02:19:15;10.20;;;5.60;;
54845;SDS011;53889;50.084;8.646;2022-10-20T02:21:46;10.80;;;6.20;;
54845;SDS011;53889;50.084;8.646;2022-10-20T02:24:13;9.20;;;5.93;;
54845;SDS011;53889;50.084;8.646;2022-10-20T02:26:42;9.38;;;6.07;;
54845;SDS011;53889;50.084;8.646;2022-10-20T02:29:11;8.88;;;5.57;;
54845;SDS011;53889;50.084;8.646;2022-10-20T02:31:40;14.15;;;5.80;;
54845;SDS011;53889;50.084;8.646;2022-10-20T02:34:09;13.48;;;5.95;;
54845;SDS011;53889;50.084;8.646;2022-10-20T02:36:37;9.20;;;6.00;;
54845;SDS011;53889;50.084;8.646;2022-10-20T02:39:06;8.90;;;6.00;;
54845;SDS011;53889;50.084;8.646;2022-10-20T02:41:33;11.38;;;6.00;;
54845;SDS011;53889;50.084;8.646;2022-10-20T02:44:00;10.07;;;5.97;;
54845;SDS011;53889;50.084;8.646;2022-10-20T02:46:26;7.95;;;5.97;;
54845;SDS011;53889;50.084;8.646;2022-10-20T02:48:53;10.60;;;6.32;;
54845;SDS011;53889;50.084;8.646;2022-10-20T02:51:22;10.75;;;5.80;;
54845;SDS011;53889;50.084;8.646;2022-10-20T02:53:49;6.82;;;5.22;;
54845;SDS011;53889;50.084;8.646;2022-10-20T02:56:15;9.35;;;6.03;;
54845;SDS011;53889;50.084;8.646;2022-10-20T02:58:42;9.30;;;5.68;;
54845;SDS011;53889;50.084;8.646;2022-10-20T03:01:09;9.13;;;5.88;;
54845;SDS011;53889;50.084;8.646;2022-10-20T03:03:36;8.20;;;5.55;;
54845;SDS011;53889;50.084;8.646;2022-10-20T03:06:06;11.20;;;5.72;;
54845;SDS011;53889;50.084;8.646;2022-10-20T03:08:36;9.13;;;6.25;;
54845;SDS011;53889;50.084;8.646;2022-10-20T03:11:02;9.35;;;5.43;;
54845;SDS011;53889;50.084;8.646;2022-10-20T03:13:29;10.35;;;5.50;;
54845;SDS011;53889;50.084;8.646;2022-10-20T03:15:56;10.15;;;5.90;;
54845;SDS011;53889;50.084;8.646;2022-10-20T03:18:23;8.77;;;5.57;;
54845;SDS011;53889;50.084;8.646;2022-10-20T03:20:50;10.38;;;5.57;;
54845;SDS011;53889;50.084;8.646;2022-10-20T03:23:17;8.93;;;6.25;;
54845;SDS011;53889;50.084;8.646;2022-10-20T03:25:45;11.13;;;6.03;;
54845;SDS011;53889;50.084;8.646;2022-10-20T03:28:12;11.07;;;5.70;;
54845;SDS011;53889;50.084;8.646;2022-10-20T03:30:38;9.48;;;7.32;;
54845;SDS011;53889;50.084;8.646;2022-10-20T03:33:05;9.50;;;5.90;;
54845;SDS011;53889;50.084;8.646;2022-10-20T03:35:32;8.93;;;5.65;;
54845;SDS011;53889;50.084;8.646;2022-10-20T03:37:59;8.00;;;6.05;;
54845;SDS011;53889;50.084;8.646;2022-10-20T03:40:25;8.75;;;5.57;;
54845;SDS011;53889;50.084;8.646;2022-10-20T03:42:53;9.65;;;5.65;;
54845;SDS011;53889;50.084;8.646;2022-10-20T03:45:20;8.43;;;6.00;;
54845;SDS011;53889;50.084;8.646;2022-10-20T03:47:47;10.48;;;5.93;;
54845;SDS011;53889;50.084;8.646;2022-10-20T03:50:14;8.00;;;5.50;;
54845;SDS011;53889;50.084;8.646;2022-10-20T03:52:41;8.02;;;6.05;;
54845;SDS011;53889;50.084;8.646;2022-10-20T03:55:08;12.82;;;5.93;;
54845;SDS011;53889;50.084;8.646;2022-10-20T03:57:34;11.05;;;6.47;;
54845;SDS011;53889;50.084;8.646;2022-10-20T04:00:03;9.10;;;5.90;;
54845;SDS011;53889;50.084;8.646;2022-10-20T04:02:37;9.02;;;5.90;;
54845;SDS011;53889;50.084;8.646;2022-10-20T04:05:06;9.68;;;6.03;;
54845;SDS011;53889;50.084;8.646;2022-10-20T04:07:34;9.63;;;6.30;;
54845;SDS011;53889;50.084;8.646;2022-10-20T04:10:01;8.70;;;5.65;;
54845;SDS011;53889;50.084;8.646;2022-10-20T04:12:27;11.30;;;6.22;;
54845;SDS011;53889;50.084;8.646;2022-10-20T04:14:54;10.05;;;6.30;;
54845;SDS011;53889;50.084;8.646;2022-10-20T04:17:22;9.68;;;6.38;;
54845;SDS011;53889;50.084;8.646;2022-10-20T04:19:49;9.50;;;6.65;;
54845;SDS011;53889;50.084;8.646;2022-10-20T04:22:16;12.55;;;6.32;;
54845;SDS011;53889;50.084;8.646;2022-10-20T04:24:43;9.82;;;6.20;;
54845;SDS011;53889;50.084;8.646;2022-10-20T04:27:10;10.05;;;6.38;;
54845;SDS011;53889;50.084;8.646;2022-10-20T04:29:36;10.02;;;6.13;;
54845;SDS011;53889;50.084;8.646;2022-10-20T04:32:03;11.95;;;6.20;;
54845;SDS011;53889;50.084;8.646;2022-10-20T04:34:31;8.25;;;6.10;;
54845;SDS011;53889;50.084;8.646;2022-10-20T04:36:58;7.70;;;6.10;;
54845;SDS011;53889;50.084;8.646;2022-10-20T04:39:25;9.98;;;6.38;;
54845;SDS011;53889;50.084;8.646;2022-10-20T04:41:52;8.95;;;6.57;;
54845;SDS011;53889;50.084;8.646;2022-10-20T04:44:19;10.32;;;6.25;;
54845;SDS011;53889;50.084;8.646;2022-10-20T04:46:46;9.90;;;7.20;;
54845;SDS011;53889;50.084;8.646;2022-10-20T04:49:12;9.90;;;6.47;;
54845;SDS011;53889;50.084;8.646;2022-10-20T04:51:40;11.70;;;8.05;;
54845;SDS011;53889;50.084;8.646;2022-10-20T04:54:07;11.23;;;6.50;;
54845;SDS011;53889;50.084;8.646;2022-10-20T04:56:34;11.05;;;6.50;;
54845;SDS011;53889;50.084;8.646;2022-10-20T04:59:01;10.38;;;6.63;;
54845;SDS011;53889;50.084;8.646;2022-10-20T05:01:28;9.75;;;6.68;;
54845;SDS011;53889;50.084;8.646;2022-10-20T05:03:56;10.63;;;6.78;;
54845;SDS011;53889;50.084;8.646;2022-10-20T05:06:24;10.55;;;7.00;;
54845;SDS011;53889;50.084;8.646;2022-10-20T05:08:54;10.68;;;7.68;;
54845;SDS011;53889;50.084;8.646;2022-10-20T05:11:23;14.35;;;8.10;;
54845;SDS011;53889;50.084;8.646;2022-10-20T05:13:50;14.57;;;8.48;;
54845;SDS011;53889;50.084;8.646;2022-10-20T05:16:17;18.00;;;9.80;;
54845;SDS011;53889;50.084;8.646;2022-10-20T05:18:45;20.88;;;10.90;;
54845;SDS011;53889;50.084;8.646;2022-10-20T05:21:13;17.13;;;9.90;;
54845;SDS011;53889;50.084;8.646;2022-10-20T05:23:42;15.98;;;9.57;;
54845;SDS011;53889;50.084;8.646;2022-10-20T05:26:11;18.27;;;8.63;;
54845;SDS011;53889;50.084;8.646;2022-10-20T05:28:39;13.00;;;8.02;;
54845;SDS011;53889;50.084;8.646;2022-10-20T05:31:09;13.75;;;8.38;;
54845;SDS011;53889;50.084;8.646;2022-10-20T05:33:36;16.00;;;9.80;;
54845;SDS011;53889;50.084;8.646;2022-10-20T05:36:07;14.50;;;9.02;;
54845;SDS011;53889;50.084;8.646;2022-10-20T05:38:35;16.38;;;10.38;;
54845;SDS011;53889;50.084;8.646;2022-10-20T05:41:06;15.52;;;9.90;;
54845;SDS011;53889;50.084;8.646;2022-10-20T05:43:35;13.25;;;8.50;;
54845;SDS011;53889;50.084;8.646;2022-10-20T05:46:02;13.60;;;8.70;;
54845;SDS011;53889;50.084;8.646;2022-10-20T05:48:29;14.35;;;8.15;;
54845;SDS011;53889;50.084;8.646;2022-10-20T05:51:05;11.50;;;7.70;;
54845;SDS011;53889;50.084;8.646;2022-10-20T05:56:01;12.82;;;8.43;;
54845;SDS011;53889;50.084;8.646;2022-10-20T05:58:29;14.00;;;8.65;;
54845;SDS011;53889;50.084;8.646;2022-10-20T06:01:04;16.40;;;9.80;;
54845;SDS011;53889;50.084;8.646;2022-10-20T06:03:31;14.85;;;8.63;;
54845;SDS011;53889;50.084;8.646;2022-10-20T06:05:59;15.38;;;9.52;;
54845;SDS011;53889;50.084;8.646;2022-10-20T06:08:28;14.00;;;8.57;;
54845;SDS011;53889;50.084;8.646;2022-10-20T06:10:55;17.20;;;9.70;;
54845;SDS011;53889;50.084;8.646;2022-10-20T06:13:22;14.52;;;9.45;;
54845;SDS011;53889;50.084;8.646;2022-10-20T06:15:49;14.30;;;9.00;;
54845;SDS011;53889;50.084;8.646;2022-10-20T06:18:17;22.10;;;13.82;;
54845;SDS011;53889;50.084;8.646;2022-10-20T06:20:46;22.30;;;11.32;;
54845;SDS011;53889;50.084;8.646;2022-10-20T06:23:13;13.80;;;8.77;;
54845;SDS011;53889;50.084;8.646;2022-10-20T06:25:40;12.95;;;7.95;;
54845;SDS011;53889;50.084;8.646;2022-10-20T06:28:06;13.48;;;7.88;;
54845;SDS011;53889;50.084;8.646;2022-10-20T06:30:34;16.10;;;8.70;;
54845;SDS011;53889;50.084;8.646;2022-10-20T06:33:00;12.35;;;7.95;;
54845;SDS011;53889;50.084;8.646;2022-10-20T06:35:28;13.10;;;7.45;;
54845;SDS011;53889;50.084;8.646;2022-10-20T06:37:56;13.90;;;8.00;;
54845;SDS011;53889;50.084;8.646;2022-10-20T06:40:22;15.80;;;7.82;;
54845;SDS011;53889;50.084;8.646;2022-10-20T06:42:49;13.93;;;8.73;;
54845;SDS011;53889;50.084;8.646;2022-10-20T06:45:16;14.20;;;8.57;;
54845;SDS011;53889;50.084;8.646;2022-10-20T06:47:43;14.90;;;7.90;;
54845;SDS011;53889;50.084;8.646;2022-10-20T06:50:10;12.93;;;8.60;;
54845;SDS011;53889;50.084;8.646;2022-10-20T06:52:38;14.20;;;9.00;;
54845;SDS011;53889;50.084;8.646;2022-10-20T06:55:05;16.25;;;9.80;;
54845;SDS011;53889;50.084;8.646;2022-10-20T06:57:33;16.52;;;9.10;;
54845;SDS011;53889;50.084;8.646;2022-10-20T07:00:00;11.68;;;7.80;;
54845;SDS011;53889;50.084;8.646;2022-10-20T07:02:27;15.48;;;8.88;;
54845;SDS011;53889;50.084;8.646;2022-10-20T07:04:53;11.23;;;7.97;;
54845;SDS011;53889;50.084;8.646;2022-10-20T07:07:20;12.38;;;8.00;;
54845;SDS011;53889;50.084;8.646;2022-10-20T07:09:48;12.35;;;8.38;;
54845;SDS011;53889;50.084;8.646;2022-10-20T07:12:15;13.10;;;8.50;;
54845;SDS011;53889;50.084;8.646;2022-10-20T07:14:42;14.75;;;9.18;;
54845;SDS011;53889;50.084;8.646;2022-10-20T07:17:08;11.70;;;8.43;;
54845;SDS011;53889;50.084;8.646;2022-10-20T07:19:35;14.07;;;8.63;;
54845;SDS011;53889;50.084;8.646;2022-10-20T07:22:02;12.07;;;8.63;;
54845;SDS011;53889;50.084;8.646;2022-10-20T07:24:28;12.90;;;8.80;;
54845;SDS011;53889;50.084;8.646;2022-10-20T07:26:57;14.05;;;9.00;;
54845;SDS011;53889;50.084;8.646;2022-10-20T07:29:23;12.35;;;8.07;;
54845;SDS011;53889;50.084;8.646;2022-10-20T07:31:50;13.93;;;8.93;;
54845;SDS011;53889;50.084;8.646;2022-10-20T07:34:17;13.00;;;9.48;;
54845;SDS011;53889;50.084;8.646;2022-10-20T07:36:47;12.38;;;8.40;;
54845;SDS011;53889;50.084;8.646;2022-10-20T07:39:14;11.32;;;7.57;;
54845;SDS011;53889;50.084;8.646;2022-10-20T07:41:41;15.73;;;8.27;;
54845;SDS011;53889;50.084;8.646;2022-10-20T07:44:12;12.45;;;7.70;;
54845;SDS011;53889;50.084;8.646;2022-10-20T07:46:39;12.27;;;8.02;;
54845;SDS011;53889;50.084;8.646;2022-10-20T07:49:06;13.57;;;8.65;;
54845;SDS011;53889;50.084;8.646;2022-10-20T07:51:32;12.65;;;8.98;;
54845;SDS011;53889;50.084;8.646;2022-10-20T07:54:00;12.95;;;8.90;;
54845;SDS011;53889;50.084;8.646;2022-10-20T07:56:29;12.82;;;9.25;;
54845;SDS011;53889;50.084;8.646;2022-10-20T07:58:57;14.02;;;9.68;;
54845;SDS011;53889;50.084;8.646;2022-10-20T08:01:25;14.13;;;9.57;;
54845;SDS011;53889;50.084;8.646;2022-10-20T08:03:52;12.30;;;9.35;;
54845;SDS011;53889;50.084;8.646;2022-10-20T08:06:19;16.10;;;10.45;;
54845;SDS011;53889;50.084;8.646;2022-10-20T08:08:46;16.05;;;10.82;;
54845;SDS011;53889;50.084;8.646;2022-10-20T08:11:13;16.92;;;10.95;;
54845;SDS011;53889;50.084;8.646;2022-10-20T08:13:39;18.60;;;11.48;;
54845;SDS011;53889;50.084;8.646;2022-10-20T08:16:07;18.50;;;12.25;;
54845;SDS011;53889;50.084;8.646;2022-10-20T08:18:37;17.98;;;11.50;;
54845;SDS011;53889;50.084;8.646;2022-10-20T08:21:04;15.73;;;11.27;;
54845;SDS011;53889;50.084;8.646;2022-10-20T08:23:32;18.67;;;11.35;;
54845;SDS011;53889;50.084;8.646;2022-10-20T08:25:59;18.48;;;11.68;;
54845;SDS011;53889;50.084;8.646;2022-10-20T08:28:26;18.98;;;11.77;;
54845;SDS011;53889;50.084;8.646;2022-10-20T08:30:52;20.65;;;11.88;;
54845;SDS011;53889;50.084;8.646;2022-10-20T08:33:19;18.67;;;12.35;;
54845;SDS011;53889;50.084;8.646;2022-10-20T08:35:47;19.90;;;12.90;;
54845;SDS011;53889;50.084;8.646;2022-10-20T08:38:14;19.75;;;13.25;;
54845;SDS011;53889;50.084;8.646;2022-10-20T08:40:40;19.42;;;12.30;;
54845;SDS011;53889;50.084;8.646;2022-10-20T08:43:10;18.88;;;12.70;;
54845;SDS011;53889;50.084;8.646;2022-10-20T08:45:41;18.08;;;12.45;;
54845;SDS011;53889;50.084;8.646;2022-10-20T08:48:09;17.35;;;11.55;;
54845;SDS011;53889;50.084;8.646;2022-10-20T08:50:41;16.80;;;12.18;;
54845;SDS011;53889;50.084;8.646;2022-10-20T08:53:11;19.73;;;12.65;;
54845;SDS011;53889;50.084;8.646;2022-10-20T08:55:38;18.27;;;11.73;;
54845;SDS011;53889;50.084;8.646;2022-10-20T08:58:06;15.20;;;11.10;;
54845;SDS011;53889;50.084;8.646;2022-10-20T09:00:38;18.80;;;11.32;;
54845;SDS011;53889;50.084;8.646;2022-10-20T09:03:09;16.75;;;11.30;;
54845;SDS011;53889;50.084;8.646;2022-10-20T09:05:41;16.33;;;10.95;;
54845;SDS011;53889;50.084;8.646;2022-10-20T09:08:09;16.92;;;11.43;;
54845;SDS011;53889;50.084;8.646;2022-10-20T09:10:38;17.58;;;11.85;;
54845;SDS011;53889;50.084;8.646;2022-10-20T09:13:13;19.25;;;12.25;;
54845;SDS011;53889;50.084;8.646;2022-10-20T09:15:45;17.52;;;11.07;;
54845;SDS011;53889;50.084;8.646;2022-10-20T09:18:13;17.88;;;11.95;;
54845;SDS011;53889;50.084;8.646;2022-10-20T09:20:41;14.13;;;10.07;;
54845;SDS011;53889;50.084;8.646;2022-10-20T09:23:13;17.30;;;10.35;;
54845;SDS011;53889;50.084;8.646;2022-10-20T09:25:42;16.48;;;10.48;;
54845;SDS011;53889;50.084;8.646;2022-10-20T09:28:15;19.48;;;10.98;;
54845;SDS011;53889;50.084;8.646;2022-10-20T09:30:46;16.95;;;9.98;;
54845;SDS011;53889;50.084;8.646;2022-10-20T09:33:21;14.43;;;10.90;;
54845;SDS011;53889;50.084;8.646;2022-10-20T09:35:52;17.55;;;11.48;;
54845;SDS011;53889;50.084;8.646;2022-10-20T09:38:24;15.68;;;10.27;;
54845;SDS011;53889;50.084;8.646;2022-10-20T09:40:55;14.32;;;9.43;;
54845;SDS011;53889;50.084;8.646;2022-10-20T09:43:27;13.13;;;9.82;;
54845;SDS011;53889;50.084;8.646;2022-10-20T09:45:55;15.60;;;9.77;;
54845;SDS011;53889;50.084;8.646;2022-10-20T09:48:26;14.93;;;9.60;;
54845;SDS011;53889;50.084;8.646;2022-10-20T09:50:56;13.45;;;9.82;;
54845;SDS011;53889;50.084;8.646;2022-10-20T09:53:26;12.88;;;9.85;;
54845;SDS011;53889;50.084;8.646;2022-10-20T09:55:54;14.85;;;10.60;;
54845;SDS011;53889;50.084;8.646;2022-10-20T09:58:22;16.02;;;10.15;;
54845;SDS011;53889;50.084;8.646;2022-10-20T10:00:56;14.50;;;9.82;;
54845;SDS011;53889;50.084;8.646;2022-10-20T10:03:25;14.40;;;9.88;;
54845;SDS011;53889;50.084;8.646;2022-10-20T10:05:53;14.85;;;10.45;;
54845;SDS011;53889;50.084;8.646;2022-10-20T10:08:22;13.30;;;10.00;;
54845;SDS011;53889;50.084;8.646;2022-10-20T10:10:59;14.30;;;9.93;;
54845;SDS011;53889;50.084;8.646;2022-10-20T10:13:28;15.82;;;10.25;;
54845;SDS011;53889;50.084;8.646;2022-10-20T10:16:00;18.45;;;10.98;;
54845;SDS011;53889;50.084;8.646;2022-10-20T10:18:31;17.13;;;10.93;;
54845;SDS011;53889;50.084;8.646;2022-10-20T10:21:00;16.30;;;10.75;;
54845;SDS011;53889;50.084;8.646;2022-10-20T10:23:30;15.98;;;11.20;;
54845;SDS011;53889;50.084;8.646;2022-10-20T10:26:02;16.75;;;10.95;;
54845;SDS011;53889;50.084;8.646;2022-10-20T10:28:49;17.75;;;12.05;;
54845;SDS011;53889;50.084;8.646;2022-10-20T10:31:23;18.65;;;12.35;;
54845;SDS011;53889;50.084;8.646;2022-10-20T10:33:54;17.50;;;12.10;;
54845;SDS011;53889;50.084;8.646;2022-10-20T10:36:30;16.60;;;11.80;;
54845;SDS011;53889;50.084;8.646;2022-10-20T10:38:59;17.55;;;12.18;;
54845;SDS011;53889;50.084;8.646;2022-10-20T10:41:44;18.17;;;12.30;;
54845;SDS011;53889;50.084;8.646;2022-10-20T10:44:27;19.13;;;12.90;;
54845;SDS011;53889;50.084;8.646;2022-10-20T10:47:07;19.38;;;12.27;;
54845;SDS011;53889;50.084;8.646;2022-10-20T10:49:52;19.25;;;12.48;;
54845;SDS011;53889;50.084;8.646;2022-10-20T10:52:30;17.63;;;11.98;;
54845;SDS011;53889;50.084;8.646;2022-10-20T10:55:10;18.10;;;12.07;;
54845;SDS011;53889;50.084;8.646;2022-10-20T10:57:46;17.83;;;11.82;;
54845;SDS011;53889;50.084;8.646;2022-10-20T11:00:27;19.08;;;12.52;;
54845;SDS011;53889;50.084;8.646;2022-10-20T11:03:07;18.67;;;12.15;;
54845;SDS011;53889;50.084;8.646;2022-10-20T11:08:41;16.50;;;11.45;;
54845;SDS011;53889;50.084;8.646;2022-10-20T11:11:19;16.38;;;11.80;;
54845;SDS011;53889;50.084;8.646;2022-10-20T11:13:57;17.60;;;12.02;;
54845;SDS011;53889;50.084;8.646;2022-10-20T11:16:36;17.70;;;11.95;;
54845;SDS011;53889;50.084;8.646;2022-10-20T11:22:05;16.48;;;11.23;;
54845;SDS011;53889;50.084;8.646;2022-10-20T11:24:47;15.98;;;11.23;;
54845;SDS011;53889;50.084;8.646;2022-10-20T11:27:21;16.33;;;10.25;;
54845;SDS011;53889;50.084;8.646;2022-10-20T11:29:53;17.20;;;10.57;;
54845;SDS011;53889;50.084;8.646;2022-10-20T11:32:29;16.55;;;10.40;;
54845;SDS011;53889;50.084;8.646;2022-10-20T11:35:01;14.77;;;10.65;;
54845;SDS011;53889;50.084;8.646;2022-10-20T11:37:34;16.08;;;10.55;;
54845;SDS011;53889;50.084;8.646;2022-10-20T11:40:11;15.00;;;10.02;;
54845;SDS011;53889;50.084;8.646;2022-10-20T11:42:46;14.75;;;10.27;;
54845;SDS011;53889;50.084;8.646;2022-10-20T11:45:33;15.70;;;10.90;;
54845;SDS011;53889;50.084;8.646;2022-10-20T11:48:08;15.60;;;10.65;;
54845;SDS011;53889;50.084;8.646;2022-10-20T11:50:41;14.85;;;10.50;;
54845;SDS011;53889;50.084;8.646;2022-10-20T11:53:26;17.52;;;11.82;;
54845;SDS011;53889;50.084;8.646;2022-10-20T11:56:18;16.13;;;10.63;;
54845;SDS011;53889;50.084;8.646;2022-10-20T11:59:04;17.00;;;11.70;;
54845;SDS011;53889;50.084;8.646;2022-10-20T12:01:53;16.48;;;11.38;;
54845;SDS011;53889;50.084;8.646;2022-10-20T12:04:35;17.65;;;11.48;;
54845;SDS011;53889;50.084;8.646;2022-10-20T12:07:21;15.40;;;11.25;;
54845;SDS011;53889;50.084;8.646;2022-10-20T12:10:11;19.75;;;11.55;;
54845;SDS011;53889;50.084;8.646;2022-10-20T12:12:54;17.30;;;11.60;;
54845;SDS011;53889;50.084;8.646;2022-10-20T12:15:28;16.88;;;10.80;;
54845;SDS011;53889;50.084;8.646;2022-10-20T12:17:59;16.92;;;11.52;;
54845;SDS011;53889;50.084;8.646;2022-10-20T12:20:46;15.75;;;11.60;;
54845;SDS011;53889;50.084;8.646;2022-10-20T12:26:42;19.95;;;12.45;;
54845;SDS011;53889;50.084;8.646;2022-10-20T12:29:51;17.67;;;11.77;;
54845;SDS011;53889;50.084;8.646;2022-10-20T12:32:23;16.60;;;11.77;;
54845;SDS011;53889;50.084;8.646;2022-10-20T12:35:02;16.65;;;11.18;;
54845;SDS011;53889;50.084;8.646;2022-10-20T12:37:49;18.02;;;11.68;;
54845;SDS011;53889;50.084;8.646;2022-10-20T12:40:23;14.50;;;10.60;;
54845;SDS011;53889;50.084;8.646;2022-10-20T12:42:52;16.95;;;11.52;;
54845;SDS011;53889;50.084;8.646;2022-10-20T12:45:22;18.27;;;11.80;;
54845;SDS011;53889;50.084;8.646;2022-10-20T12:47:55;16.30;;;11.13;;
54845;SDS011;53889;50.084;8.646;2022-10-20T12:50:27;18.48;;;11.68;;
54845;SDS011;53889;50.084;8.646;2022-10-20T12:53:07;17.27;;;11.40;;
54845;SDS011;53889;50.084;8.646;2022-10-20T12:55:39;14.68;;;10.73;;
54845;SDS011;53889;50.084;8.646;2022-10-20T12:58:10;16.45;;;10.85;;
54845;SDS011;53889;50.084;8.646;2022-10-20T13:01:01;19.95;;;12.27;;
54845;SDS011;53889;50.084;8.646;2022-10-20T13:03:38;16.02;;;10.88;;
54845;SDS011;53889;50.084;8.646;2022-10-20T13:09:13;15.00;;;10.63;;
54845;SDS011;53889;50.084;8.646;2022-10-20T13:11:51;15.10;;;11.43;;
54845;SDS011;53889;50.084;8.646;2022-10-20T13:14:29;16.60;;;10.85;;
54845;SDS011;53889;50.084;8.646;2022-10-20T13:17:17;17.10;;;11.25;;
54845;SDS011;53889;50.084;8.646;2022-10-20T13:19:50;16.23;;;11.63;;
54845;SDS011;53889;50.084;8.646;2022-10-20T13:22:39;15.25;;;10.98;;
54845;SDS011;53889;50.084;8.646;2022-10-20T13:25:12;15.15;;;10.95;;
54845;SDS011;53889;50.084;8.646;2022-10-20T13:28:03;15.02;;;10.88;;
54845;SDS011;53889;50.084;8.646;2022-10-20T13:30:32;16.08;;;11.80;;
54845;SDS011;53889;50.084;8.646;2022-10-20T13:33:02;17.77;;;10.98;;
54845;SDS011;53889;50.084;8.646;2022-10-20T13:35:41;16.38;;;11.50;;
54845;SDS011;53889;50.084;8.646;2022-10-20T13:38:18;15.95;;;11.18;;
54845;SDS011;53889;50.084;8.646;2022-10-20T13:40:50;16.58;;;11.05;;
54845;SDS011;53889;50.084;8.646;2022-10-20T13:43:25;15.60;;;11.20;;
54845;SDS011;53889;50.084;8.646;2022-10-20T13:49:10;18.73;;;11.88;;
54845;SDS011;53889;50.084;8.646;2022-10-20T13:51:50;19.08;;;12.02;;
54845;SDS011;53889;50.084;8.646;2022-10-20T13:54:22;15.88;;;11.43;;
54845;SDS011;53889;50.084;8.646;2022-10-20T13:56:51;18.35;;;11.68;;
54845;SDS011;53889;50.084;8.646;2022-10-20T13:59:20;16.33;;;11.63;;
54845;SDS011;53889;50.084;8.646;2022-10-20T14:01:50;20.02;;;12.52;;
54845;SDS011;53889;50.084;8.646;2022-10-20T14:04:21;15.90;;;11.35;;
54845;SDS011;53889;50.084;8.646;2022-10-20T14:06:50;19.40;;;11.35;;
54845;SDS011;53889;50.084;8.646;2022-10-20T14:09:18;16.60;;;11.93;;
54845;SDS011;53889;50.084;8.646;2022-10-20T14:11:49;16.83;;;11.88;;
54845;SDS011;53889;50.084;8.646;2022-10-20T14:14:19;18.85;;;12.82;;
54845;SDS011;53889;50.084;8.646;2022-10-20T14:16:49;22.55;;;16.05;;
54845;SDS011;53889;50.084;8.646;2022-10-20T14:19:19;18.38;;;13.45;;
54845;SDS011;53889;50.084;8.646;2022-10-20T14:21:51;19.45;;;12.85;;
54845;SDS011;53889;50.084;8.646;2022-10-20T14:24:23;20.10;;;14.13;;
54845;SDS011;53889;50.084;8.646;2022-10-20T14:26:55;20.05;;;13.32;;
54845;SDS011;53889;50.084;8.646;2022-10-20T14:29:23;18.33;;;13.20;;
54845;SDS011;53889;50.084;8.646;2022-10-20T14:31:53;23.42;;;13.70;;
54845;SDS011;53889;50.084;8.646;2022-10-20T14:34:21;19.30;;;13.23;;
54845;SDS011;53889;50.084;8.646;2022-10-20T14:36:50;17.52;;;14.05;;
54845;SDS011;53889;50.084;8.646;2022-10-20T14:39:20;20.35;;;14.00;;
54845;SDS011;53889;50.084;8.646;2022-10-20T14:41:51;20.88;;;14.38;;
54845;SDS011;53889;50.084;8.646;2022-10-20T14:44:23;21.63;;;14.13;;
54845;SDS011;53889;50.084;8.646;2022-10-20T14:46:53;19.45;;;14.23;;
54845;SDS011;53889;50.084;8.646;2022-10-20T14:49:22;22.63;;;14.65;;
54845;SDS011;53889;50.084;8.646;2022-10-20T14:51:53;19.88;;;14.73;;
54845;SDS011;53889;50.084;8.646;2022-10-20T14:54:26;20.83;;;14.43;;
54845;SDS011;53889;50.084;8.646;2022-10-20T14:56:59;22.30;;;15.10;;
54845;SDS011;53889;50.084;8.646;2022-10-20T14:59:27;23.42;;;15.65;;
54845;SDS011;53889;50.084;8.646;2022-10-20T15:01:59;20.10;;;15.70;;
54845;SDS011;53889;50.084;8.646;2022-10-20T15:04:33;22.75;;;16.40;;
54845;SDS011;53889;50.084;8.646;2022-10-20T15:07:01;25.67;;;16.67;;
54845;SDS011;53889;50.084;8.646;2022-10-20T15:09:31;26.15;;;17.00;;
54845;SDS011;53889;50.084;8.646;2022-10-20T15:12:09;23.17;;;16.77;;
54845;SDS011;53889;50.084;8.646;2022-10-20T15:14:40;23.00;;;17.30;;